Home > Products > Valid Products > TAF

000
FTUS43 KOAX 010715 AAB
TAFOMA
TAF AMD
KOMA 010715Z 0107/0206 18010KT P6SM SCT010 BKN150
      TEMPO 0107/0111 5SM BR BKN010
     FM011100 24005KT 6SM BR SCT012 BKN250
      TEMPO 0111/0113 4SM BR BKN012
     FM011300 31008KT P6SM BKN020
     FM011700 33009KT P6SM SCT030 BKN250=



000
FTUS43 KOAX 010715 AAB
TAFOMA
TAF AMD
KOMA 010715Z 0107/0206 18010KT P6SM SCT010 BKN150
      TEMPO 0107/0111 5SM BR BKN010
     FM011100 24005KT 6SM BR SCT012 BKN250
      TEMPO 0111/0113 4SM BR BKN012
     FM011300 31008KT P6SM BKN020
     FM011700 33009KT P6SM SCT030 BKN250=



000
FTUS43 KOAX 010606 AAA
TAFOMA
TAF AMD
KOMA 010606Z 0106/0206 18010KT P6SM BKN150 OVC250
     FM010800 20006KT P6SM BKN150
      TEMPO 0108/0110 5SM BR
     FM011000 32005KT 6SM BR SCT020 SCT150
      TEMPO 0110/0113 4SM BR BKN020
     FM011700 33009KT P6SM BKN250=



000
FTUS43 KOAX 010606 AAA
TAFOMA
TAF AMD
KOMA 010606Z 0106/0206 18010KT P6SM BKN150 OVC250
     FM010800 20006KT P6SM BKN150
      TEMPO 0108/0110 5SM BR
     FM011000 32005KT 6SM BR SCT020 SCT150
      TEMPO 0110/0113 4SM BR BKN020
     FM011700 33009KT P6SM BKN250=



000
FTUS43 KOAX 010520
TAFLNK
TAF
KLNK 010520Z 0106/0206 21005KT P6SM BKN150
     FM010800 31006KT P6SM BKN150
      TEMPO 0110/0113 5SM BR SCT150
     FM011700 34010KT P6SM BKN250=



000
FTUS43 KOAX 010520
TAFOMA
TAF
KOMA 010520Z 0106/0206 15005KT P6SM BKN150
     FM010900 32005KT P6SM BKN150
      TEMPO 0110/0113 5SM BR SCT150
     FM011700 33009KT P6SM BKN250=



000
FTUS43 KOAX 010520
TAFOMA
TAF
KOMA 010520Z 0106/0206 15005KT P6SM BKN150
     FM010900 32005KT P6SM BKN150
      TEMPO 0110/0113 5SM BR SCT150
     FM011700 33009KT P6SM BKN250=



000
FTUS43 KOAX 010520
TAFOFK
TAF
KOFK 010520Z 0106/0206 31006KT P6SM BKN150
      TEMPO 0109/0113 4SM BR SCT150
     FM011800 33010KT P6SM BKN250
     FM020000 22003KT P6SM SCT250=



000
FTUS43 KOAX 010520
TAFOFK
TAF
KOFK 010520Z 0106/0206 31006KT P6SM BKN150
      TEMPO 0109/0113 4SM BR SCT150
     FM011800 33010KT P6SM BKN250
     FM020000 22003KT P6SM SCT250=



000
FTUS43 KOAX 010520
TAFLNK
TAF
KLNK 010520Z 0106/0206 21005KT P6SM BKN150
     FM010800 31006KT P6SM BKN150
      TEMPO 0110/0113 5SM BR SCT150
     FM011700 34010KT P6SM BKN250=



000
FTUS43 KOAX 010203 AAA
TAFOMA
TAF AMD
KOMA 010203Z 0102/0124 19005KT P6SM SCT040 OVC100
     FM010400 32006KT P6SM BKN090
     FM011200 31007KT P6SM BKN250
     FM011800 33008KT P6SM BKN250=



000
FTUS43 KOAX 010203 AAA
TAFOMA
TAF AMD
KOMA 010203Z 0102/0124 19005KT P6SM SCT040 OVC100
     FM010400 32006KT P6SM BKN090
     FM011200 31007KT P6SM BKN250
     FM011800 33008KT P6SM BKN250=



000
FTUS43 KOAX 010126 AAA
TAFOFK
TAF AMD
KOFK 010126Z 0101/0124 32005KT P6SM SCT040 BKN090
     FM011000 32007KT P6SM BKN250
     FM011700 32007KT P6SM OVC250=



000
FTUS43 KOAX 010126 AAA
TAFOFK
TAF AMD
KOFK 010126Z 0101/0124 32005KT P6SM SCT040 BKN090
     FM011000 32007KT P6SM BKN250
     FM011700 32007KT P6SM OVC250=



000
FTUS43 KOAX 010042 AAA
TAFLNK
TAF AMD
KLNK 010042Z 0101/0124 33012KT P6SM SCT040 BKN090
      TEMPO 0101/0102 2SM TSRA BKN025CB
     FM010200 34007KT P6SM BKN040
     FM010400 32007KT P6SM BKN090
     FM011200 35005KT P6SM BKN250
     FM011800 33007KT P6SM BKN250=



000
FTUS43 KOAX 010042 AAA
TAFLNK
TAF AMD
KLNK 010042Z 0101/0124 33012KT P6SM SCT040 BKN090
      TEMPO 0101/0102 2SM TSRA BKN025CB
     FM010200 34007KT P6SM BKN040
     FM010400 32007KT P6SM BKN090
     FM011200 35005KT P6SM BKN250
     FM011800 33007KT P6SM BKN250=



000
FTUS43 KOAX 312320
TAFOFK
TAF
KOFK 312320Z 0100/0124 05005KT P6SM SCT040 BKN090
      TEMPO 0100/0102 4SM -TSRA BKN040CB
     FM010200 34005KT 5SM -SHRA OVC040
     FM010400 32006KT P6SM OVC060
     FM011000 32007KT P6SM BKN250
     FM011700 32007KT P6SM OVC250=



000
FTUS43 KOAX 312320
TAFOFK
TAF
KOFK 312320Z 0100/0124 05005KT P6SM SCT040 BKN090
      TEMPO 0100/0102 4SM -TSRA BKN040CB
     FM010200 34005KT 5SM -SHRA OVC040
     FM010400 32006KT P6SM OVC060
     FM011000 32007KT P6SM BKN250
     FM011700 32007KT P6SM OVC250=



000
FTUS43 KOAX 312320
TAFOMA
TAF
KOMA 312320Z 0100/0124 12010KT 4SM TSRA SCT040CB OVC100
      TEMPO 0100/0102 VRB25G45KT 1SM +TSRA BKN015CB
     FM010200 34007KT 4SM -TSRA BKN040CB
     FM010400 32006KT P6SM BKN090
     FM011200 31007KT P6SM BKN250
     FM011800 33008KT P6SM BKN250=



000
FTUS43 KOAX 312320
TAFLNK
TAF
KLNK 312320Z 0100/0124 33012KT 4SM TSRA SCT040CB OVC090
      TEMPO 0100/0102 VRB25G45KT 1SM +TSRA BKN015CB
     FM010200 34007KT 4SM -TSRA BKN040CB
     FM010400 32007KT P6SM BKN090
     FM011200 35005KT P6SM BKN250
     FM011800 33007KT P6SM BKN250=



000
FTUS43 KOAX 312247 AAB
TAFOFK
TAF AMD
KOFK 312247Z 3123/0118 21008KT P6SM -SHRA SCT040 BKN090
      TEMPO 3123/0101 3SM -TSRA BKN040CB
     FM010100 35006KT 5SM -TSRA BKN040CB
     FM010300 32012KT P6SM SCT040 BKN200
     FM011000 32011KT P6SM BKN015
     FM011700 33010KT P6SM SCT025=



000
FTUS43 KOAX 312247 AAB
TAFOFK
TAF AMD
KOFK 312247Z 3123/0118 21008KT P6SM -SHRA SCT040 BKN090
      TEMPO 3123/0101 3SM -TSRA BKN040CB
     FM010100 35006KT 5SM -TSRA BKN040CB
     FM010300 32012KT P6SM SCT040 BKN200
     FM011000 32011KT P6SM BKN015
     FM011700 33010KT P6SM SCT025=



000
FTUS43 KOAX 312125 AAA
TAFLNK
TAF AMD
KLNK 312125Z 3121/0118 21010KT P6SM SCT060 BKN100
      TEMPO 3122/0101 VRB25G45KT 2SM +TSRA BKN015CB
     FM010100 VRB20KT 4SM -TSRA BKN040CB
     FM010400 32012KT P6SM BKN250
      TEMPO 0104/0106 5SM -TSRA BKN040CB
     FM011200 33012KT P6SM SCT030
      TEMPO 0112/0115 BKN020=



000
FTUS43 KOAX 312125 AAA
TAFLNK
TAF AMD
KLNK 312125Z 3121/0118 21010KT P6SM SCT060 BKN100
      TEMPO 3122/0101 VRB25G45KT 2SM +TSRA BKN015CB
     FM010100 VRB20KT 4SM -TSRA BKN040CB
     FM010400 32012KT P6SM BKN250
      TEMPO 0104/0106 5SM -TSRA BKN040CB
     FM011200 33012KT P6SM SCT030
      TEMPO 0112/0115 BKN020=



000
FTUS43 KOAX 312123 AAA
TAFOMA
TAF AMD
KOMA 312123Z 3121/0118 14014KT P6SM SCT090 BKN150
      TEMPO 3123/0102 VRB25G45KT 2SM +TSRA BKN015CB
     FM010200 15010KT 4SM -TSRA BKN040CB
     FM010400 30010KT P6SM BKN250
     FM011200 31011KT P6SM SCT030
      TEMPO 0112/0115 BKN020=



000
FTUS43 KOAX 312123 AAA
TAFOMA
TAF AMD
KOMA 312123Z 3121/0118 14014KT P6SM SCT090 BKN150
      TEMPO 3123/0102 VRB25G45KT 2SM +TSRA BKN015CB
     FM010200 15010KT 4SM -TSRA BKN040CB
     FM010400 30010KT P6SM BKN250
     FM011200 31011KT P6SM SCT030
      TEMPO 0112/0115 BKN020=



000
FTUS43 KOAX 312120 AAA
TAFOFK
TAF AMD
KOFK 312120Z 3121/0118 21008KT 4SM TSRA BKN060CB OVC150
      TEMPO 3122/3123 VRB35KT 2SM +TSRA BKN025CB
     FM010100 35006KT 5SM -TSRA BKN040CB
     FM010300 32012KT P6SM SCT040 BKN200
     FM011000 32011KT P6SM BKN015
     FM011700 33010KT P6SM SCT025=



000
FTUS43 KOAX 312120 AAA
TAFOFK
TAF AMD
KOFK 312120Z 3121/0118 21008KT 4SM TSRA BKN060CB OVC150
      TEMPO 3122/3123 VRB35KT 2SM +TSRA BKN025CB
     FM010100 35006KT 5SM -TSRA BKN040CB
     FM010300 32012KT P6SM SCT040 BKN200
     FM011000 32011KT P6SM BKN015
     FM011700 33010KT P6SM SCT025=



000
FTUS43 KOAX 311720
TAFOFK
TAF
KOFK 311720Z 3118/0118 21008KT P6SM SCT070 BKN150
      TEMPO 3122/0101 VRB25KT 2SM +TSRA BKN025CB
     FM010100 35006KT 4SM -TSRA BKN040CB
     FM010400 32012KT P6SM SCT040 BKN200 PROB30 0104/0110 5SM -SHRA
      BKN050
     FM011000 32011KT P6SM BKN015
     FM011700 33010KT P6SM SCT025=



000
FTUS43 KOAX 311720
TAFOFK
TAF
KOFK 311720Z 3118/0118 21008KT P6SM SCT070 BKN150
      TEMPO 3122/0101 VRB25KT 2SM +TSRA BKN025CB
     FM010100 35006KT 4SM -TSRA BKN040CB
     FM010400 32012KT P6SM SCT040 BKN200 PROB30 0104/0110 5SM -SHRA
      BKN050
     FM011000 32011KT P6SM BKN015
     FM011700 33010KT P6SM SCT025=



000
FTUS43 KOAX 311720
TAFOMA
TAF
KOMA 311720Z 3118/0118 18011G20KT 5SM -TSRA BKN050CB
     FM311830 17011G20KT P6SM SCT070 BKN250
      TEMPO 3123/0102 VRB25G45KT 2SM +TSRA BKN015CB
     FM010200 15010KT 4SM -TSRA BKN040CB
     FM010400 30010KT P6SM BKN250 PROB30 0104/0108 5SM TSRA BKN040CB
     FM011200 31011KT P6SM SCT030
      TEMPO 0112/0115 BKN020=



000
FTUS43 KOAX 311720
TAFLNK
TAF
KLNK 311720Z 3118/0118 16010KT P6SM SCT100 BKN150
     FM312000 19016G22KT P6SM SCT060 BKN150
      TEMPO 3123/0102 VRB25G45KT 2SM +TSRA BKN015CB
     FM010200 VRB20KT 4SM -TSRA BKN040CB
     FM010400 32012KT P6SM BKN250 PROB30 0104/0108 5SM TSRA BKN040CB
     FM011200 33012KT P6SM SCT030
      TEMPO 0112/0115 BKN020=



000
FTUS43 KOAX 311648 AAA
TAFOMA
TAF AMD
KOMA 311648Z 3117/0112 16011KT P6SM SCT080 BKN150
      TEMPO 3117/3119 5SM -TSRA BKN080CB
     FM311900 17015G22KT P6SM BKN250
      TEMPO 3123/0102 VRB25G45KT 2SM +TSRA BKN015CB
     FM010200 15010KT 4SM -TSRA BKN040CB
     FM010400 30012KT P6SM BKN250 PROB30 0104/0108 5SM TSRA
      BKN040CB=



000
FTUS43 KOAX 311519 AAA
TAFLNK
TAF AMD
KLNK 311519Z 3115/0112 18010KT P6SM SCT100 BKN150
      TEMPO 3115/3117 5SM -TSRA BKN070CB
     FM311700 19010KT P6SM BKN150
      TEMPO 3122/3124 VRB25G45KT 2SM +TSRA BKN015CB
     FM010000 17012KT 4SM -TSRA BKN040CB
      TEMPO 0100/0104 VRB25G45KT 2SM +TSRA BKN015CB
     FM010400 32012KT P6SM BKN250 PROB30 0104/0106 5SM TSRA
      BKN040CB=



000
FTUS43 KOAX 311519 AAA
TAFLNK
TAF AMD
KLNK 311519Z 3115/0112 18010KT P6SM SCT100 BKN150
      TEMPO 3115/3117 5SM -TSRA BKN070CB
     FM311700 19010KT P6SM BKN150
      TEMPO 3122/3124 VRB25G45KT 2SM +TSRA BKN015CB
     FM010000 17012KT 4SM -TSRA BKN040CB
      TEMPO 0100/0104 VRB25G45KT 2SM +TSRA BKN015CB
     FM010400 32012KT P6SM BKN250 PROB30 0104/0106 5SM TSRA
      BKN040CB=



000
FTUS43 KOAX 311450 AAA
TAFOFK
TAF AMD
KOFK 311450Z 3115/0112 19010KT P6SM SCT100 BKN150
      TEMPO 3115/3116 5SM -TSRA BKN080CB
     FM311900 19010KT P6SM SCT060 BKN200
      TEMPO 3122/3124 VRB25KT 2SM +TSRA BKN025CB
     FM010000 35006KT 4SM -TSRA BKN040CB
     FM010400 32012KT P6SM BKN250=



000
FTUS43 KOAX 311450 AAA
TAFOFK
TAF AMD
KOFK 311450Z 3115/0112 19010KT P6SM SCT100 BKN150
      TEMPO 3115/3116 5SM -TSRA BKN080CB
     FM311900 19010KT P6SM SCT060 BKN200
      TEMPO 3122/3124 VRB25KT 2SM +TSRA BKN025CB
     FM010000 35006KT 4SM -TSRA BKN040CB
     FM010400 32012KT P6SM BKN250=



000
FTUS43 KOAX 311120
TAFOFK
TAF
KOFK 311120Z 3112/0112 21009KT P6SM BKN250
      TEMPO 3121/3124 VRB25G45KT 2SM +TSRA BKN015CB
     FM010000 35006KT 4SM -TSRA BKN040CB
      TEMPO 0100/0104 VRB25G45KT 2SM +TSRA BKN015CB
     FM010400 32012KT P6SM BKN250=



000
FTUS43 KOAX 311120
TAFOMA
TAF
KOMA 311120Z 3112/0112 16011KT P6SM BKN250
     FM311800 17015G22KT P6SM BKN250
      TEMPO 3122/3124 VRB25G45KT 2SM +TSRA BKN015CB
     FM010000 15010KT 4SM -TSRA BKN040CB
      TEMPO 0100/0104 VRB25G45KT 2SM +TSRA BKN015CB
     FM010400 30012KT P6SM BKN250 PROB30 0104/0108 5SM TSRA
      BKN040CB=



000
FTUS43 KOAX 311120
TAFOMA
TAF
KOMA 311120Z 3112/0112 16011KT P6SM BKN250
     FM311800 17015G22KT P6SM BKN250
      TEMPO 3122/3124 VRB25G45KT 2SM +TSRA BKN015CB
     FM010000 15010KT 4SM -TSRA BKN040CB
      TEMPO 0100/0104 VRB25G45KT 2SM +TSRA BKN015CB
     FM010400 30012KT P6SM BKN250 PROB30 0104/0108 5SM TSRA
      BKN040CB=



000
FTUS43 KOAX 311120
TAFLNK
TAF
KLNK 311120Z 3112/0112 18010KT P6SM BKN250
      TEMPO 3121/3124 VRB25G45KT 2SM +TSRA BKN015CB
     FM010000 17012KT 4SM -TSRA BKN040CB
      TEMPO 0100/0104 VRB25G45KT 2SM +TSRA BKN015CB
     FM010400 32012KT P6SM BKN250 PROB30 0104/0106 5SM TSRA
      BKN040CB=



000
FTUS43 KOAX 311120
TAFOFK
TAF
KOFK 311120Z 3112/0112 21009KT P6SM BKN250
      TEMPO 3121/3124 VRB25G45KT 2SM +TSRA BKN015CB
     FM010000 35006KT 4SM -TSRA BKN040CB
      TEMPO 0100/0104 VRB25G45KT 2SM +TSRA BKN015CB
     FM010400 32012KT P6SM BKN250=



000
FTUS43 KOAX 311120
TAFLNK
TAF
KLNK 311120Z 3112/0112 18010KT P6SM BKN250
      TEMPO 3121/3124 VRB25G45KT 2SM +TSRA BKN015CB
     FM010000 17012KT 4SM -TSRA BKN040CB
      TEMPO 0100/0104 VRB25G45KT 2SM +TSRA BKN015CB
     FM010400 32012KT P6SM BKN250 PROB30 0104/0106 5SM TSRA
      BKN040CB=



000
FTUS43 KOAX 310520
TAFLNK
TAF
KLNK 310520Z 3106/0106 14007KT P6SM SKC
     FM311000 15010KT P6SM SCT150 WS020/21040KT
     FM311600 19015G24KT P6SM SCT150
     FM312300 15012KT 6SM -TSRA BR OVC040CB
      TEMPO 0102/0106 3SM TSRA BR OVC020CB=



000
FTUS43 KOAX 310520
TAFOFK
TAF
KOFK 310520Z 3106/0106 14010KT P6SM SKC
     FM310800 15011KT P6SM SCT150 WS020/21050KT
     FM311500 19011KT P6SM SCT050 BKN150 PROB30 3120/3123 6SM -TSRA
      OVC050CB
     FM010100 33010KT P6SM BKN050=



000
FTUS43 KOAX 310520
TAFOMA
TAF
KOMA 310520Z 3106/0106 15006KT P6SM SKC
     FM311000 15010KT P6SM SCT150 WS020/21040KT
     FM311500 17015G22KT P6SM SCT050
     FM312300 16012KT 6SM -TSRA BR OVC050CB
      TEMPO 0102/0106 3SM TSRA BR OVC025CB=



000
FTUS43 KOAX 310520
TAFLNK
TAF
KLNK 310520Z 3106/0106 14007KT P6SM SKC
     FM311000 15010KT P6SM SCT150 WS020/21040KT
     FM311600 19015G24KT P6SM SCT150
     FM312300 15012KT 6SM -TSRA BR OVC040CB
      TEMPO 0102/0106 3SM TSRA BR OVC020CB=



000
FTUS43 KOAX 310520
TAFOMA
TAF
KOMA 310520Z 3106/0106 15006KT P6SM SKC
     FM311000 15010KT P6SM SCT150 WS020/21040KT
     FM311500 17015G22KT P6SM SCT050
     FM312300 16012KT 6SM -TSRA BR OVC050CB
      TEMPO 0102/0106 3SM TSRA BR OVC025CB=



000
FTUS43 KOAX 310520
TAFOFK
TAF
KOFK 310520Z 3106/0106 14010KT P6SM SKC
     FM310800 15011KT P6SM SCT150 WS020/21050KT
     FM311500 19011KT P6SM SCT050 BKN150 PROB30 3120/3123 6SM -TSRA
      OVC050CB
     FM010100 33010KT P6SM BKN050=



000
FTUS43 KOAX 302328
TAFLNK
TAF
KLNK 302328Z 3100/3124 16006KT P6SM SKC
     FM311600 19015G24KT P6SM SCT150=



000
FTUS43 KOAX 302328
TAFOMA
TAF
KOMA 302328Z 3100/3124 15006KT P6SM SKC
     FM311500 17015KT P6SM SCT150=



000
FTUS43 KOAX 302328
TAFOFK
TAF
KOFK 302328Z 3100/3124 15008KT P6SM SKC
     FM311400 20011KT P6SM BKN250=



000
FTUS43 KOAX 302328
TAFOFK
TAF
KOFK 302328Z 3100/3124 15008KT P6SM SKC
     FM311400 20011KT P6SM BKN250=



000
FTUS43 KOAX 302328
TAFLNK
TAF
KLNK 302328Z 3100/3124 16006KT P6SM SKC
     FM311600 19015G24KT P6SM SCT150=



000
FTUS43 KOAX 302328
TAFOMA
TAF
KOMA 302328Z 3100/3124 15006KT P6SM SKC
     FM311500 17015KT P6SM SCT150=



000
FTUS43 KOAX 301720
TAFOMA
TAF
KOMA 301720Z 3018/3118 30005KT P6SM SCT015
      TEMPO 3018/3019 BKN015
     FM301900 30005KT P6SM SKC
     FM310800 15008KT P6SM SKC
     FM311400 17013KT P6SM SCT090 BKN250=



000
FTUS43 KOAX 301720
TAFLNK
TAF
KLNK 301720Z 3018/3118 VRB03KT P6SM SKC
     FM310500 17007KT P6SM SKC
     FM311400 18013KT P6SM SCT090 BKN250=



000
FTUS43 KOAX 301720
TAFOMA
TAF
KOMA 301720Z 3018/3118 30005KT P6SM SCT015
      TEMPO 3018/3019 BKN015
     FM301900 30005KT P6SM SKC
     FM310800 15008KT P6SM SKC
     FM311400 17013KT P6SM SCT090 BKN250=



000
FTUS43 KOAX 301720
TAFOFK
TAF
KOFK 301720Z 3018/3118 30005KT P6SM SKC
     FM310000 15005KT P6SM SKC
     FM310600 17010KT P6SM BKN250
     FM311400 20013KT P6SM SCT090 BKN250=



000
FTUS43 KOAX 301720
TAFLNK
TAF
KLNK 301720Z 3018/3118 VRB03KT P6SM SKC
     FM310500 17007KT P6SM SKC
     FM311400 18013KT P6SM SCT090 BKN250=



000
FTUS43 KOAX 301608 AAB
TAFOMA
TAF AMD
KOMA 301608Z 3016/3112 33006KT P6SM OVC005
      TEMPO 3016/3018 BKN009
     FM301800 32005KT P6SM SCT015
      TEMPO 3018/3020 BKN015
     FM302000 18007KT P6SM SCT250=



000
FTUS43 KOAX 301608 AAB
TAFOMA
TAF AMD
KOMA 301608Z 3016/3112 33006KT P6SM OVC005
      TEMPO 3016/3018 BKN009
     FM301800 32005KT P6SM SCT015
      TEMPO 3018/3020 BKN015
     FM302000 18007KT P6SM SCT250=



000
FTUS43 KOAX 301406 AAA
TAFOFK
TAF AMD
KOFK 301406Z 3014/3112 30007KT P6SM SCT010
      TEMPO 3014/3016 BKN008
     FM301600 32007KT P6SM SCT250
     FM301800 18007KT P6SM SCT250=



000
FTUS43 KOAX 301406 AAA
TAFOFK
TAF AMD
KOFK 301406Z 3014/3112 30007KT P6SM SCT010
      TEMPO 3014/3016 BKN008
     FM301600 32007KT P6SM SCT250
     FM301800 18007KT P6SM SCT250=



000
FTUS43 KOAX 301345 AAA
TAFOMA
TAF AMD
KOMA 301345Z 3014/3112 32006KT 5SM BR OVC009
      TEMPO 3014/3016 1 1/2SM BR BKN004
     FM301600 32005KT P6SM SCT015
      TEMPO 3016/3018 BKN015
     FM302000 18007KT P6SM SCT250=



000
FTUS43 KOAX 301345 AAA
TAFOMA
TAF AMD
KOMA 301345Z 3014/3112 32006KT 5SM BR OVC009
      TEMPO 3014/3016 1 1/2SM BR BKN004
     FM301600 32005KT P6SM SCT015
      TEMPO 3016/3018 BKN015
     FM302000 18007KT P6SM SCT250=



000
FTUS43 KOAX 301120
TAFOFK
TAF
KOFK 301120Z 3012/3112 32009KT P6SM SCT250
      TEMPO 3012/3014 3SM BR BKN007
     FM301800 18007KT P6SM SCT250=



000
FTUS43 KOAX 301120
TAFLNK
TAF
KLNK 301120Z 3012/3112 30008KT P6SM SCT250
     FM302000 18007KT P6SM SCT250=



000
FTUS43 KOAX 301120
TAFOMA
TAF
KOMA 301120Z 3012/3112 33009KT P6SM SCT250
      TEMPO 3012/3014 3SM BR BKN007
     FM302000 18007KT P6SM SCT250=



000
FTUS43 KOAX 301120
TAFLNK
TAF
KLNK 301120Z 3012/3112 30008KT P6SM SCT250
     FM302000 18007KT P6SM SCT250=



000
FTUS43 KOAX 301120
TAFOMA
TAF
KOMA 301120Z 3012/3112 33009KT P6SM SCT250
      TEMPO 3012/3014 3SM BR BKN007
     FM302000 18007KT P6SM SCT250=



000
FTUS43 KOAX 301120
TAFOFK
TAF
KOFK 301120Z 3012/3112 32009KT P6SM SCT250
      TEMPO 3012/3014 3SM BR BKN007
     FM301800 18007KT P6SM SCT250=



000
FTUS43 KOAX 300520
TAFLNK
TAF
KLNK 300520Z 3006/3106 28004KT P6SM SCT150
     FM300800 31004KT 5SM BR SCT015
      TEMPO 3010/3012 2SM BR OVC012
     FM301500 31008KT P6SM SCT050
     FM302200 15007KT P6SM SKC=



000
FTUS43 KOAX 300520
TAFOFK
TAF
KOFK 300520Z 3006/3106 30003KT P6SM SCT150
     FM300900 30003KT 4SM BR SCT008
      TEMPO 3011/3014 1SM BR OVC004
     FM301600 30008KT P6SM SCT250
     FM302100 15008KT P6SM SCT040=



000
FTUS43 KOAX 300520
TAFOMA
TAF
KOMA 300520Z 3006/3106 29005KT P6SM SCT120
     FM300800 33004KT 4SM BR SCT012
     FM301000 30004KT 3SM BR BKN012
      TEMPO 3011/3014 1SM BR OVC008
     FM301600 31008KT P6SM SCT030
     FM302300 16006KT P6SM SKC=



000
FTUS43 KOAX 300520
TAFLNK
TAF
KLNK 300520Z 3006/3106 28004KT P6SM SCT150
     FM300800 31004KT 5SM BR SCT015
      TEMPO 3010/3012 2SM BR OVC012
     FM301500 31008KT P6SM SCT050
     FM302200 15007KT P6SM SKC=



000
FTUS43 KOAX 300520
TAFOMA
TAF
KOMA 300520Z 3006/3106 29005KT P6SM SCT120
     FM300800 33004KT 4SM BR SCT012
     FM301000 30004KT 3SM BR BKN012
      TEMPO 3011/3014 1SM BR OVC008
     FM301600 31008KT P6SM SCT030
     FM302300 16006KT P6SM SKC=



000
FTUS43 KOAX 300520
TAFOFK
TAF
KOFK 300520Z 3006/3106 30003KT P6SM SCT150
     FM300900 30003KT 4SM BR SCT008
      TEMPO 3011/3014 1SM BR OVC004
     FM301600 30008KT P6SM SCT250
     FM302100 15008KT P6SM SCT040=



000
FTUS43 KOAX 292322
TAFLNK
TAF
KLNK 292322Z 3000/3024 23006KT P6SM OVC015
     FM300200 27005KT P6SM SCT030
     FM300800 31004KT 5SM BR SCT015
      TEMPO 3010/3012 2SM BR OVC012
     FM301500 31008KT P6SM SCT050=



000
FTUS43 KOAX 292322
TAFOMA
TAF
KOMA 292322Z 3000/3024 24006KT P6SM SCT040 BKN120
      TEMPO 3002/3004 BKN025
     FM300800 33004KT 4SM BR SCT012
     FM301000 30004KT 3SM BR BKN012
      TEMPO 3011/3014 1SM BR OVC008
     FM301600 31008KT P6SM SCT050=



000
FTUS43 KOAX 292322
TAFOFK
TAF
KOFK 292322Z 3000/3024 34005KT P6SM SCT050 BKN120
     FM300900 30003KT 4SM BR SCT008
      TEMPO 3011/3014 1SM BR OVC004
     FM301600 30008KT P6SM SCT250
     FM302100 19008KT P6SM SCT040=



000
FTUS43 KOAX 292322
TAFOMA
TAF
KOMA 292322Z 3000/3024 24006KT P6SM SCT040 BKN120
      TEMPO 3002/3004 BKN025
     FM300800 33004KT 4SM BR SCT012
     FM301000 30004KT 3SM BR BKN012
      TEMPO 3011/3014 1SM BR OVC008
     FM301600 31008KT P6SM SCT050=



000
FTUS43 KOAX 292322
TAFLNK
TAF
KLNK 292322Z 3000/3024 23006KT P6SM OVC015
     FM300200 27005KT P6SM SCT030
     FM300800 31004KT 5SM BR SCT015
      TEMPO 3010/3012 2SM BR OVC012
     FM301500 31008KT P6SM SCT050=



000
FTUS43 KOAX 292322
TAFOFK
TAF
KOFK 292322Z 3000/3024 34005KT P6SM SCT050 BKN120
     FM300900 30003KT 4SM BR SCT008
      TEMPO 3011/3014 1SM BR OVC004
     FM301600 30008KT P6SM SCT250
     FM302100 19008KT P6SM SCT040=



000
FTUS43 KOAX 291725
TAFOMA
TAF
KOMA 291725Z 2918/3018 22005KT P6SM SCT015 OVC025
      TEMPO 2918/2922 3SM TSRA BKN015CB
     FM292300 25006KT P6SM OVC100
     FM300600 31006KT P6SM BKN025
      TEMPO 3009/3013 2SM BR OVC008
     FM301300 32005KT 5SM BR BKN015
     FM301600 31006KT P6SM SCT100=



000
FTUS43 KOAX 291725
TAFOFK
TAF
KOFK 291725Z 2918/3018 VRB05KT P6SM SCT007 OVC025
      TEMPO 2918/2921 3SM TSRA OVC015CB
     FM292100 33007KT P6SM OVC060
     FM300100 34005KT P6SM BKN100
     FM300900 30003KT 4SM BR OVC015
      TEMPO 3010/3014 1SM BR OVC004
     FM301500 30005KT P6SM BKN250=



000
FTUS43 KOAX 291725
TAFLNK
TAF
KLNK 291725Z 2918/3018 24006KT P6SM SCT012 OVC050
      TEMPO 2918/2922 3SM TSRA BKN015CB
     FM292200 25007KT P6SM BKN100
     FM300100 33006KT P6SM BKN100
     FM300300 33006KT P6SM SCT100
      TEMPO 3011/3014 3SM BR=



000
FTUS43 KOAX 291725
TAFLNK
TAF
KLNK 291725Z 2918/3018 24006KT P6SM SCT012 OVC050
      TEMPO 2918/2922 3SM TSRA BKN015CB
     FM292200 25007KT P6SM BKN100
     FM300100 33006KT P6SM BKN100
     FM300300 33006KT P6SM SCT100
      TEMPO 3011/3014 3SM BR=



000
FTUS43 KOAX 291725
TAFOFK
TAF
KOFK 291725Z 2918/3018 VRB05KT P6SM SCT007 OVC025
      TEMPO 2918/2921 3SM TSRA OVC015CB
     FM292100 33007KT P6SM OVC060
     FM300100 34005KT P6SM BKN100
     FM300900 30003KT 4SM BR OVC015
      TEMPO 3010/3014 1SM BR OVC004
     FM301500 30005KT P6SM BKN250=



000
FTUS43 KOAX 291725
TAFOMA
TAF
KOMA 291725Z 2918/3018 22005KT P6SM SCT015 OVC025
      TEMPO 2918/2922 3SM TSRA BKN015CB
     FM292300 25006KT P6SM OVC100
     FM300600 31006KT P6SM BKN025
      TEMPO 3009/3013 2SM BR OVC008
     FM301300 32005KT 5SM BR BKN015
     FM301600 31006KT P6SM SCT100=



000
FTUS43 KOAX 291603 AAB
TAFOFK
TAF AMD
KOFK 291603Z 2916/3012 VRB05KT P6SM OVC007
      TEMPO 2918/2922 3SM TSRA OVC015CB
     FM292200 32008KT P6SM OVC100
     FM300900 30003KT 4SM BR BKN025=



000
FTUS43 KOAX 291603 AAB
TAFOFK
TAF AMD
KOFK 291603Z 2916/3012 VRB05KT P6SM OVC007
      TEMPO 2918/2922 3SM TSRA OVC015CB
     FM292200 32008KT P6SM OVC100
     FM300900 30003KT 4SM BR BKN025=



000
FTUS43 KOAX 291545 AAC
TAFLNK
TAF AMD
KLNK 291545Z 2916/3012 22008KT P6SM SCT009 BKN110
      TEMPO 2917/2921 3SM TSRA BKN015CB
     FM292100 33010KT P6SM BKN100=



000
FTUS43 KOAX 291545 AAC
TAFLNK
TAF AMD
KLNK 291545Z 2916/3012 22008KT P6SM SCT009 BKN110
      TEMPO 2917/2921 3SM TSRA BKN015CB
     FM292100 33010KT P6SM BKN100=



000
FTUS43 KOAX 291542 AAC
TAFOMA
TAF AMD
KOMA 291542Z 2916/3012 18009KT P6SM SCT020 OVC110
      TEMPO 2918/2922 3SM TSRA BKN020CB
     FM300000 29004KT P6SM OVC100
     FM300200 33004KT P6SM BKN250
     FM301000 34005KT 4SM BR SCT250=



000
FTUS43 KOAX 291542 AAC
TAFOMA
TAF AMD
KOMA 291542Z 2916/3012 18009KT P6SM SCT020 OVC110
      TEMPO 2918/2922 3SM TSRA BKN020CB
     FM300000 29004KT P6SM OVC100
     FM300200 33004KT P6SM BKN250
     FM301000 34005KT 4SM BR SCT250=



000
FTUS43 KOAX 291402 AAA
TAFOFK
TAF AMD
KOFK 291402Z 2914/3012 32006KT P6SM SCT010 OVC100
      TEMPO 2914/2916 OVC010
     FM291600 30006KT P6SM OVC100
      TEMPO 2921/2924 4SM TSRA BKN040CB
     FM300900 30003KT 4SM BR BKN025=



000
FTUS43 KOAX 291402 AAA
TAFOFK
TAF AMD
KOFK 291402Z 2914/3012 32006KT P6SM SCT010 OVC100
      TEMPO 2914/2916 OVC010
     FM291600 30006KT P6SM OVC100
      TEMPO 2921/2924 4SM TSRA BKN040CB
     FM300900 30003KT 4SM BR BKN025=



000
FTUS43 KOAX 291353 AAB
TAFLNK
TAF AMD
KLNK 291353Z 2914/3012 19005KT P6SM SCT030 BKN110
      TEMPO 2914/2917 4SM SHRA BKN030
     FM292100 33010KT P6SM BKN100
      TEMPO 2921/2924 3SM TSRA BKN040CB=



000
FTUS43 KOAX 291353 AAB
TAFLNK
TAF AMD
KLNK 291353Z 2914/3012 19005KT P6SM SCT030 BKN110
      TEMPO 2914/2917 4SM SHRA BKN030
     FM292100 33010KT P6SM BKN100
      TEMPO 2921/2924 3SM TSRA BKN040CB=



000
FTUS43 KOAX 291349 AAB
TAFOMA
TAF AMD
KOMA 291349Z 2914/3012 12006KT P6SM SCT015 OVC110
      TEMPO 2914/2916 5SM -SHRA BR BKN015
     FM291600 17009KT P6SM BKN120
      TEMPO 2916/2920 3SM TSRA BKN030CB
     FM300000 29004KT P6SM OVC100
     FM300200 33004KT P6SM BKN250
     FM301000 34005KT 4SM BR SCT250=



000
FTUS43 KOAX 291349 AAB
TAFOMA
TAF AMD
KOMA 291349Z 2914/3012 12006KT P6SM SCT015 OVC110
      TEMPO 2914/2916 5SM -SHRA BR BKN015
     FM291600 17009KT P6SM BKN120
      TEMPO 2916/2920 3SM TSRA BKN030CB
     FM300000 29004KT P6SM OVC100
     FM300200 33004KT P6SM BKN250
     FM301000 34005KT 4SM BR SCT250=



000
FTUS43 KOAX 291151 AAA
TAFLNK
TAF AMD
KLNK 291151Z 2912/3012 22005KT P6SM BKN120
      TEMPO 2912/2914 6SM -SHRA BKN030
     FM292100 33010KT P6SM BKN100 PROB30 2921/2924 5SM TSRA
      BKN040CB=



000
FTUS43 KOAX 291150 AAA
TAFOMA
TAF AMD
KOMA 291150Z 2912/3012 17006KT P6SM BKN120
      TEMPO 2912/2914 6SM -SHRA BKN030
     FM291400 16006KT P6SM BKN120 PROB30 2921/2924 5SM TSRA BKN040CB
     FM300000 29004KT P6SM OVC100
     FM300200 33004KT P6SM BKN250
     FM301000 34005KT 4SM BR SCT250=



000
FTUS43 KOAX 291150 AAA
TAFOMA
TAF AMD
KOMA 291150Z 2912/3012 17006KT P6SM BKN120
      TEMPO 2912/2914 6SM -SHRA BKN030
     FM291400 16006KT P6SM BKN120 PROB30 2921/2924 5SM TSRA BKN040CB
     FM300000 29004KT P6SM OVC100
     FM300200 33004KT P6SM BKN250
     FM301000 34005KT 4SM BR SCT250=



000
FTUS43 KOAX 291124
TAFOMA
TAF
KOMA 291124Z 2912/3012 17006KT P6SM BKN120 PROB30 2921/2924 5SM
      TSRA BKN040CB
     FM300000 29004KT P6SM OVC100
     FM300200 33004KT P6SM BKN250
     FM301000 34005KT 4SM BR SCT250=



000
FTUS43 KOAX 291124
TAFOFK
TAF
KOFK 291124Z 2912/3012 28004KT P6SM BKN120
      TEMPO 2912/2914 4SM BR OVC010
     FM291400 28006KT P6SM OVC100 PROB30 2921/2924 4SM TSRA BKN040CB
     FM300900 30003KT 4SM BR BKN025=



000
FTUS43 KOAX 291124
TAFLNK
TAF
KLNK 291124Z 2912/3012 22005KT P6SM BKN120
     FM292100 33010KT P6SM BKN100 PROB30 2921/2924 5SM TSRA
      BKN040CB=



000
FTUS43 KOAX 291124
TAFOFK
TAF
KOFK 291124Z 2912/3012 28004KT P6SM BKN120
      TEMPO 2912/2914 4SM BR OVC010
     FM291400 28006KT P6SM OVC100 PROB30 2921/2924 4SM TSRA BKN040CB
     FM300900 30003KT 4SM BR BKN025=



000
FTUS43 KOAX 291124
TAFLNK
TAF
KLNK 291124Z 2912/3012 22005KT P6SM BKN120
     FM292100 33010KT P6SM BKN100 PROB30 2921/2924 5SM TSRA
      BKN040CB=



000
FTUS43 KOAX 291124
TAFOMA
TAF
KOMA 291124Z 2912/3012 17006KT P6SM BKN120 PROB30 2921/2924 5SM
      TSRA BKN040CB
     FM300000 29004KT P6SM OVC100
     FM300200 33004KT P6SM BKN250
     FM301000 34005KT 4SM BR SCT250=



    US Dept of Commerce
    National Oceanic and Atmospheric Administration
    National Weather Service
    1325 East West Highway
    Silver Spring, MD 20910
    Page Author: NWS Internet Services Team
Disclaimer
Information Quality
Credits
Glossary
Privacy Policy
Freedom of Information Act (FOIA)
About Us
Career Opportunities